sensor_id;sensor_type;location;lat;lon;timestamp;temperature;humidity
18781;DHT22;9519;51.890;8.970;2022-12-07T00:03:12;4.50;99.90
18781;DHT22;9519;51.890;8.970;2022-12-07T00:13:16;4.40;99.90
18781;DHT22;9519;51.890;8.970;2022-12-07T00:18:20;4.40;99.90
18781;DHT22;9519;51.890;8.970;2022-12-07T00:23:22;4.10;99.90
18781;DHT22;9519;51.890;8.970;2022-12-07T00:28:24;4.20;99.90
18781;DHT22;9519;51.890;8.970;2022-12-07T00:33:27;4.50;99.90
18781;DHT22;9519;51.890;8.970;2022-12-07T00:38:31;4.30;99.90
18781;DHT22;9519;51.890;8.970;2022-12-07T00:43:34;4.20;99.90
18781;DHT22;9519;51.890;8.970;2022-12-07T00:48:38;4.40;99.90
18781;DHT22;9519;51.890;8.970;2022-12-07T00:53:41;4.50;99.90
18781;DHT22;9519;51.890;8.970;2022-12-07T00:58:43;4.50;99.90
18781;DHT22;9519;51.890;8.970;2022-12-07T01:03:47;4.30;99.90
18781;DHT22;9519;51.890;8.970;2022-12-07T01:08:49;4.60;99.90
18781;DHT22;9519;51.890;8.970;2022-12-07T01:13:53;4.40;99.90
18781;DHT22;9519;51.890;8.970;2022-12-07T01:18:59;4.60;99.90
18781;DHT22;9519;51.890;8.970;2022-12-07T01:24:02;4.90;99.90
18781;DHT22;9519;51.890;8.970;2022-12-07T01:29:05;4.90;99.90
18781;DHT22;9519;51.890;8.970;2022-12-07T01:34:09;4.90;99.90
18781;DHT22;9519;51.890;8.970;2022-12-07T01:39:11;4.50;99.90
18781;DHT22;9519;51.890;8.970;2022-12-07T01:44:17;4.70;99.90
18781;DHT22;9519;51.890;8.970;2022-12-07T01:49:28;4.90;99.90
18781;DHT22;9519;51.890;8.970;2022-12-07T01:54:34;4.50;99.90
18781;DHT22;9519;51.890;8.970;2022-12-07T01:59:37;5.00;99.90
18781;DHT22;9519;51.890;8.970;2022-12-07T02:04:41;5.00;99.90
18781;DHT22;9519;51.890;8.970;2022-12-07T02:09:43;4.80;99.90
18781;DHT22;9519;51.890;8.970;2022-12-07T02:14:46;5.20;99.90
18781;DHT22;9519;51.890;8.970;2022-12-07T02:20:04;5.30;99.90
18781;DHT22;9519;51.890;8.970;2022-12-07T02:25:20;5.10;99.90
18781;DHT22;9519;51.890;8.970;2022-12-07T02:30:32;5.30;99.90
18781;DHT22;9519;51.890;8.970;2022-12-07T02:35:40;5.10;99.90
18781;DHT22;9519;51.890;8.970;2022-12-07T02:40:50;4.90;99.90
18781;DHT22;9519;51.890;8.970;2022-12-07T02:46:00;4.80;99.90
18781;DHT22;9519;51.890;8.970;2022-12-07T02:51:05;5.30;99.90
18781;DHT22;9519;51.890;8.970;2022-12-07T02:56:20;4.90;99.90
18781;DHT22;9519;51.890;8.970;2022-12-07T03:01:39;5.30;99.90
18781;DHT22;9519;51.890;8.970;2022-12-07T03:06:51;5.20;99.90
18781;DHT22;9519;51.890;8.970;2022-12-07T03:12:02;4.90;99.90
18781;DHT22;9519;51.890;8.970;2022-12-07T03:17:18;4.80;99.90
18781;DHT22;9519;51.890;8.970;2022-12-07T03:22:23;5.10;99.90
18781;DHT22;9519;51.890;8.970;2022-12-07T03:27:31;4.70;99.90
18781;DHT22;9519;51.890;8.970;2022-12-07T03:32:43;4.80;99.90
18781;DHT22;9519;51.890;8.970;2022-12-07T03:37:49;4.80;99.90
18781;DHT22;9519;51.890;8.970;2022-12-07T03:42:55;5.00;99.90
18781;DHT22;9519;51.890;8.970;2022-12-07T03:48:05;4.80;99.90
18781;DHT22;9519;51.890;8.970;2022-12-07T03:53:15;5.00;99.90
18781;DHT22;9519;51.890;8.970;2022-12-07T03:58:22;4.60;99.90
18781;DHT22;9519;51.890;8.970;2022-12-07T04:03:26;4.40;99.90
18781;DHT22;9519;51.890;8.970;2022-12-07T04:08:29;4.60;99.90
18781;DHT22;9519;51.890;8.970;2022-12-07T04:13:31;5.00;99.90
18781;DHT22;9519;51.890;8.970;2022-12-07T04:18:55;4.70;99.90
18781;DHT22;9519;51.890;8.970;2022-12-07T04:23:57;4.70;99.90
18781;DHT22;9519;51.890;8.970;2022-12-07T04:34:03;4.70;99.90
18781;DHT22;9519;51.890;8.970;2022-12-07T04:39:07;4.40;99.90
18781;DHT22;9519;51.890;8.970;2022-12-07T04:44:10;5.00;99.90
18781;DHT22;9519;51.890;8.970;2022-12-07T04:49:17;4.60;99.90
18781;DHT22;9519;51.890;8.970;2022-12-07T04:54:20;4.60;99.90
18781;DHT22;9519;51.890;8.970;2022-12-07T04:59:22;4.80;99.90
18781;DHT22;9519;51.890;8.970;2022-12-07T05:04:26;4.40;99.90
18781;DHT22;9519;51.890;8.970;2022-12-07T05:09:28;4.60;99.90
18781;DHT22;9519;51.890;8.970;2022-12-07T05:14:30;4.90;99.90
18781;DHT22;9519;51.890;8.970;2022-12-07T05:19:33;4.70;99.90
18781;DHT22;9519;51.890;8.970;2022-12-07T05:24:36;4.60;99.90
18781;DHT22;9519;51.890;8.970;2022-12-07T05:29:38;4.90;99.90
18781;DHT22;9519;51.890;8.970;2022-12-07T05:34:41;4.50;99.90
18781;DHT22;9519;51.890;8.970;2022-12-07T05:39:44;4.90;99.90
18781;DHT22;9519;51.890;8.970;2022-12-07T05:44:46;4.50;99.90
18781;DHT22;9519;51.890;8.970;2022-12-07T05:49:50;4.50;99.90
18781;DHT22;9519;51.890;8.970;2022-12-07T05:54:52;5.10;99.90
18781;DHT22;9519;51.890;8.970;2022-12-07T05:59:54;4.40;99.90
18781;DHT22;9519;51.890;8.970;2022-12-07T06:04:57;4.50;99.90
18781;DHT22;9519;51.890;8.970;2022-12-07T06:09:59;4.80;99.90
18781;DHT22;9519;51.890;8.970;2022-12-07T06:15:02;4.40;99.90
18781;DHT22;9519;51.890;8.970;2022-12-07T06:20:07;4.70;99.90
18781;DHT22;9519;51.890;8.970;2022-12-07T06:25:09;4.60;99.90
18781;DHT22;9519;51.890;8.970;2022-12-07T06:30:12;4.50;99.90
18781;DHT22;9519;51.890;8.970;2022-12-07T06:35:15;4.70;99.90
18781;DHT22;9519;51.890;8.970;2022-12-07T06:40:18;4.50;99.90
18781;DHT22;9519;51.890;8.970;2022-12-07T06:45:20;4.60;99.90
18781;DHT22;9519;51.890;8.970;2022-12-07T06:50:23;4.40;99.90
18781;DHT22;9519;51.890;8.970;2022-12-07T06:55:25;4.50;99.90
18781;DHT22;9519;51.890;8.970;2022-12-07T07:00:28;4.10;99.90
18781;DHT22;9519;51.890;8.970;2022-12-07T07:05:31;4.20;99.90
18781;DHT22;9519;51.890;8.970;2022-12-07T07:10:34;4.30;99.90
18781;DHT22;9519;51.890;8.970;2022-12-07T07:15:38;4.40;99.90
18781;DHT22;9519;51.890;8.970;2022-12-07T07:20:41;4.40;99.90
18781;DHT22;9519;51.890;8.970;2022-12-07T07:25:44;4.50;99.90
18781;DHT22;9519;51.890;8.970;2022-12-07T07:30:46;4.50;99.90
18781;DHT22;9519;51.890;8.970;2022-12-07T07:35:49;4.40;99.90
18781;DHT22;9519;51.890;8.970;2022-12-07T07:40:52;4.30;99.90
18781;DHT22;9519;51.890;8.970;2022-12-07T07:45:54;4.30;99.90
18781;DHT22;9519;51.890;8.970;2022-12-07T07:50:57;4.60;99.90
18781;DHT22;9519;51.890;8.970;2022-12-07T07:55:59;4.50;99.90
18781;DHT22;9519;51.890;8.970;2022-12-07T08:01:03;4.30;99.90
18781;DHT22;9519;51.890;8.970;2022-12-07T08:06:07;4.30;99.90
18781;DHT22;9519;51.890;8.970;2022-12-07T08:11:10;4.10;99.90
18781;DHT22;9519;51.890;8.970;2022-12-07T08:16:12;4.30;99.90
18781;DHT22;9519;51.890;8.970;2022-12-07T08:21:17;4.30;99.90
18781;DHT22;9519;51.890;8.970;2022-12-07T08:26:19;4.30;99.90
18781;DHT22;9519;51.890;8.970;2022-12-07T08:31:21;4.10;99.90
18781;DHT22;9519;51.890;8.970;2022-12-07T08:36:24;4.20;99.90
18781;DHT22;9519;51.890;8.970;2022-12-07T08:41:28;4.30;99.90
18781;DHT22;9519;51.890;8.970;2022-12-07T08:46:34;4.50;99.90
18781;DHT22;9519;51.890;8.970;2022-12-07T08:51:40;4.20;99.90
18781;DHT22;9519;51.890;8.970;2022-12-07T08:56:43;4.30;99.90
18781;DHT22;9519;51.890;8.970;2022-12-07T09:01:46;4.40;99.90
18781;DHT22;9519;51.890;8.970;2022-12-07T09:06:49;4.00;99.90
18781;DHT22;9519;51.890;8.970;2022-12-07T09:11:52;4.20;99.90
18781;DHT22;9519;51.890;8.970;2022-12-07T09:16:54;4.60;99.90
18781;DHT22;9519;51.890;8.970;2022-12-07T09:21:59;4.30;99.90
18781;DHT22;9519;51.890;8.970;2022-12-07T09:27:01;4.50;99.90
18781;DHT22;9519;51.890;8.970;2022-12-07T09:32:03;4.00;99.90
18781;DHT22;9519;51.890;8.970;2022-12-07T09:37:07;4.50;99.90
18781;DHT22;9519;51.890;8.970;2022-12-07T09:42:24;4.10;99.90
18781;DHT22;9519;51.890;8.970;2022-12-07T09:47:30;4.70;99.90
18781;DHT22;9519;51.890;8.970;2022-12-07T09:52:35;4.70;99.90
18781;DHT22;9519;51.890;8.970;2022-12-07T09:57:38;4.70;99.90
18781;DHT22;9519;51.890;8.970;2022-12-07T10:02:42;4.80;99.90
18781;DHT22;9519;51.890;8.970;2022-12-07T10:07:47;4.60;99.90
18781;DHT22;9519;51.890;8.970;2022-12-07T10:12:55;4.90;99.90
18781;DHT22;9519;51.890;8.970;2022-12-07T10:17:59;4.80;99.90
18781;DHT22;9519;51.890;8.970;2022-12-07T10:23:04;4.50;99.90
18781;DHT22;9519;51.890;8.970;2022-12-07T10:28:15;4.40;99.90
18781;DHT22;9519;51.890;8.970;2022-12-07T10:33:30;4.70;99.90
18781;DHT22;9519;51.890;8.970;2022-12-07T10:38:44;4.90;99.90
18781;DHT22;9519;51.890;8.970;2022-12-07T10:43:51;4.30;99.90
18781;DHT22;9519;51.890;8.970;2022-12-07T10:49:01;4.50;99.90
18781;DHT22;9519;51.890;8.970;2022-12-07T10:54:17;4.60;99.90
18781;DHT22;9519;51.890;8.970;2022-12-07T10:59:47;4.50;99.90
18781;DHT22;9519;51.890;8.970;2022-12-07T11:05:05;4.50;99.90
18781;DHT22;9519;51.890;8.970;2022-12-07T11:10:19;4.50;99.90
18781;DHT22;9519;51.890;8.970;2022-12-07T11:15:33;4.50;99.90
18781;DHT22;9519;51.890;8.970;2022-12-07T11:20:48;4.80;99.90
18781;DHT22;9519;51.890;8.970;2022-12-07T11:26:02;4.90;99.90
18781;DHT22;9519;51.890;8.970;2022-12-07T11:31:14;5.10;99.90
18781;DHT22;9519;51.890;8.970;2022-12-07T11:36:33;4.80;99.90
18781;DHT22;9519;51.890;8.970;2022-12-07T11:41:42;4.70;99.90
18781;DHT22;9519;51.890;8.970;2022-12-07T11:46:49;4.80;99.90
18781;DHT22;9519;51.890;8.970;2022-12-07T11:51:57;4.90;99.90
18781;DHT22;9519;51.890;8.970;2022-12-07T11:57:10;5.20;99.90
18781;DHT22;9519;51.890;8.970;2022-12-07T12:02:23;5.20;99.90
18781;DHT22;9519;51.890;8.970;2022-12-07T12:07:29;5.30;99.90
18781;DHT22;9519;51.890;8.970;2022-12-07T12:18:22;5.10;99.90
18781;DHT22;9519;51.890;8.970;2022-12-07T12:23:41;5.20;99.90
18781;DHT22;9519;51.890;8.970;2022-12-07T12:28:54;5.30;99.90
18781;DHT22;9519;51.890;8.970;2022-12-07T12:34:00;5.30;99.90
18781;DHT22;9519;51.890;8.970;2022-12-07T12:39:11;5.70;99.90
18781;DHT22;9519;51.890;8.970;2022-12-07T12:50:21;5.40;99.90
18781;DHT22;9519;51.890;8.970;2022-12-07T12:55:46;5.50;99.90
18781;DHT22;9519;51.890;8.970;2022-12-07T13:06:49;5.60;99.90
18781;DHT22;9519;51.890;8.970;2022-12-07T13:11:58;5.60;99.90
18781;DHT22;9519;51.890;8.970;2022-12-07T13:17:04;5.50;99.90
18781;DHT22;9519;51.890;8.970;2022-12-07T13:22:38;5.40;99.90
18781;DHT22;9519;51.890;8.970;2022-12-07T13:27:48;5.50;99.90
18781;DHT22;9519;51.890;8.970;2022-12-07T13:32:59;5.50;99.90
18781;DHT22;9519;51.890;8.970;2022-12-07T13:38:04;5.70;99.90
18781;DHT22;9519;51.890;8.970;2022-12-07T13:43:14;5.40;99.90
18781;DHT22;9519;51.890;8.970;2022-12-07T13:48:24;5.70;99.90
18781;DHT22;9519;51.890;8.970;2022-12-07T13:53:32;5.40;99.90
18781;DHT22;9519;51.890;8.970;2022-12-07T13:58:34;5.50;99.90
18781;DHT22;9519;51.890;8.970;2022-12-07T14:03:38;5.80;99.90
18781;DHT22;9519;51.890;8.970;2022-12-07T14:08:41;5.30;99.90
18781;DHT22;9519;51.890;8.970;2022-12-07T14:13:56;5.10;99.90
18781;DHT22;9519;51.890;8.970;2022-12-07T14:19:03;5.20;99.90
18781;DHT22;9519;51.890;8.970;2022-12-07T14:24:16;5.20;99.90
18781;DHT22;9519;51.890;8.970;2022-12-07T14:29:31;5.30;99.90
18781;DHT22;9519;51.890;8.970;2022-12-07T14:34:35;5.10;99.90
18781;DHT22;9519;51.890;8.970;2022-12-07T14:39:37;4.70;99.90
18781;DHT22;9519;51.890;8.970;2022-12-07T14:44:39;5.20;99.90
18781;DHT22;9519;51.890;8.970;2022-12-07T14:49:43;5.10;99.90
18781;DHT22;9519;51.890;8.970;2022-12-07T14:54:45;5.20;99.90
18781;DHT22;9519;51.890;8.970;2022-12-07T14:59:47;5.00;99.90
18781;DHT22;9519;51.890;8.970;2022-12-07T15:04:50;5.00;99.90
18781;DHT22;9519;51.890;8.970;2022-12-07T15:09:52;5.00;99.90
18781;DHT22;9519;51.890;8.970;2022-12-07T15:14:55;4.80;99.90
18781;DHT22;9519;51.890;8.970;2022-12-07T15:19:59;4.80;99.90
18781;DHT22;9519;51.890;8.970;2022-12-07T15:25:01;4.80;99.90
18781;DHT22;9519;51.890;8.970;2022-12-07T15:30:05;4.60;99.90
18781;DHT22;9519;51.890;8.970;2022-12-07T15:35:12;4.80;99.90
18781;DHT22;9519;51.890;8.970;2022-12-07T15:40:14;4.70;99.90
18781;DHT22;9519;51.890;8.970;2022-12-07T15:45:16;4.40;99.90
18781;DHT22;9519;51.890;8.970;2022-12-07T15:50:20;5.00;99.90
18781;DHT22;9519;51.890;8.970;2022-12-07T15:55:23;4.70;99.90
18781;DHT22;9519;51.890;8.970;2022-12-07T16:00:25;4.60;99.90
18781;DHT22;9519;51.890;8.970;2022-12-07T16:05:29;4.60;99.90
18781;DHT22;9519;51.890;8.970;2022-12-07T16:15:37;4.70;99.90
18781;DHT22;9519;51.890;8.970;2022-12-07T16:20:41;4.90;99.90
18781;DHT22;9519;51.890;8.970;2022-12-07T16:25:43;4.80;99.90
18781;DHT22;9519;51.890;8.970;2022-12-07T16:30:45;4.70;99.90
18781;DHT22;9519;51.890;8.970;2022-12-07T16:35:49;4.40;99.90
18781;DHT22;9519;51.890;8.970;2022-12-07T16:40:51;4.70;99.90
18781;DHT22;9519;51.890;8.970;2022-12-07T16:45:53;4.60;99.90
18781;DHT22;9519;51.890;8.970;2022-12-07T16:50:56;4.80;99.90
18781;DHT22;9519;51.890;8.970;2022-12-07T16:55:59;4.60;99.90
18781;DHT22;9519;51.890;8.970;2022-12-07T17:01:09;4.80;99.90
18781;DHT22;9519;51.890;8.970;2022-12-07T17:06:16;4.50;99.90
18781;DHT22;9519;51.890;8.970;2022-12-07T17:11:20;4.40;99.90
18781;DHT22;9519;51.890;8.970;2022-12-07T17:16:23;4.30;99.90
18781;DHT22;9519;51.890;8.970;2022-12-07T17:21:27;3.90;99.90
18781;DHT22;9519;51.890;8.970;2022-12-07T17:26:29;3.20;99.90
18781;DHT22;9519;51.890;8.970;2022-12-07T17:31:32;3.40;99.90
18781;DHT22;9519;51.890;8.970;2022-12-07T17:36:36;3.20;99.90
18781;DHT22;9519;51.890;8.970;2022-12-07T17:41:38;3.20;99.90
18781;DHT22;9519;51.890;8.970;2022-12-07T17:46:58;3.30;99.90
18781;DHT22;9519;51.890;8.970;2022-12-07T17:52:03;3.20;99.90
18781;DHT22;9519;51.890;8.970;2022-12-07T17:57:23;3.70;99.90
18781;DHT22;9519;51.890;8.970;2022-12-07T18:02:25;3.40;99.90
18781;DHT22;9519;51.890;8.970;2022-12-07T18:07:29;3.60;99.90
18781;DHT22;9519;51.890;8.970;2022-12-07T18:12:31;3.60;99.90
18781;DHT22;9519;51.890;8.970;2022-12-07T18:17:33;3.70;99.90
18781;DHT22;9519;51.890;8.970;2022-12-07T18:22:37;3.70;99.90
18781;DHT22;9519;51.890;8.970;2022-12-07T18:27:39;3.80;99.90
18781;DHT22;9519;51.890;8.970;2022-12-07T18:32:41;3.80;99.90
18781;DHT22;9519;51.890;8.970;2022-12-07T18:37:44;3.80;99.90
18781;DHT22;9519;51.890;8.970;2022-12-07T18:42:46;3.90;99.90
18781;DHT22;9519;51.890;8.970;2022-12-07T18:47:49;4.00;99.90
18781;DHT22;9519;51.890;8.970;2022-12-07T18:52:52;3.90;99.90
18781;DHT22;9519;51.890;8.970;2022-12-07T18:57:57;4.10;99.90
18781;DHT22;9519;51.890;8.970;2022-12-07T19:03:00;3.90;99.90
18781;DHT22;9519;51.890;8.970;2022-12-07T19:08:03;4.00;99.90
18781;DHT22;9519;51.890;8.970;2022-12-07T19:13:06;3.90;99.90
18781;DHT22;9519;51.890;8.970;2022-12-07T19:18:08;4.10;99.90
18781;DHT22;9519;51.890;8.970;2022-12-07T19:23:12;4.00;99.90
18781;DHT22;9519;51.890;8.970;2022-12-07T19:28:14;4.10;99.90
18781;DHT22;9519;51.890;8.970;2022-12-07T19:33:16;4.00;99.90
18781;DHT22;9519;51.890;8.970;2022-12-07T19:38:19;4.10;99.90
18781;DHT22;9519;51.890;8.970;2022-12-07T19:43:21;3.80;99.90
18781;DHT22;9519;51.890;8.970;2022-12-07T19:48:24;3.70;99.90
18781;DHT22;9519;51.890;8.970;2022-12-07T19:53:30;3.60;99.90
18781;DHT22;9519;51.890;8.970;2022-12-07T19:58:32;3.60;99.90
18781;DHT22;9519;51.890;8.970;2022-12-07T20:03:34;3.80;99.90
18781;DHT22;9519;51.890;8.970;2022-12-07T20:08:38;4.10;99.90
18781;DHT22;9519;51.890;8.970;2022-12-07T20:13:41;4.00;99.90
18781;DHT22;9519;51.890;8.970;2022-12-07T20:18:43;4.00;99.90
18781;DHT22;9519;51.890;8.970;2022-12-07T20:23:46;4.20;99.90
18781;DHT22;9519;51.890;8.970;2022-12-07T20:28:49;4.00;99.90
18781;DHT22;9519;51.890;8.970;2022-12-07T20:33:54;4.20;99.90
18781;DHT22;9519;51.890;8.970;2022-12-07T20:39:04;3.90;99.90
18781;DHT22;9519;51.890;8.970;2022-12-07T20:44:07;3.90;99.90
18781;DHT22;9519;51.890;8.970;2022-12-07T20:49:10;4.10;99.90
18781;DHT22;9519;51.890;8.970;2022-12-07T20:54:14;4.20;99.90
18781;DHT22;9519;51.890;8.970;2022-12-07T20:59:16;4.10;99.90
18781;DHT22;9519;51.890;8.970;2022-12-07T21:09:22;4.30;99.90
18781;DHT22;9519;51.890;8.970;2022-12-07T21:14:26;4.30;99.90
18781;DHT22;9519;51.890;8.970;2022-12-07T21:19:29;4.40;99.90
18781;DHT22;9519;51.890;8.970;2022-12-07T21:24:32;4.10;99.90
18781;DHT22;9519;51.890;8.970;2022-12-07T21:29:35;4.00;99.90
18781;DHT22;9519;51.890;8.970;2022-12-07T21:34:37;4.20;99.90
18781;DHT22;9519;51.890;8.970;2022-12-07T21:39:41;4.30;99.90
18781;DHT22;9519;51.890;8.970;2022-12-07T21:44:43;4.20;99.90
18781;DHT22;9519;51.890;8.970;2022-12-07T21:49:45;4.30;99.90
18781;DHT22;9519;51.890;8.970;2022-12-07T21:54:48;4.10;99.90
18781;DHT22;9519;51.890;8.970;2022-12-07T21:59:50;4.10;99.90
18781;DHT22;9519;51.890;8.970;2022-12-07T22:04:52;4.00;99.90
18781;DHT22;9519;51.890;8.970;2022-12-07T22:09:55;4.20;99.90
18781;DHT22;9519;51.890;8.970;2022-12-07T22:14:58;4.10;99.90
18781;DHT22;9519;51.890;8.970;2022-12-07T22:20:07;4.40;99.90
18781;DHT22;9519;51.890;8.970;2022-12-07T22:25:11;4.00;99.90
18781;DHT22;9519;51.890;8.970;2022-12-07T22:30:14;3.90;99.90
18781;DHT22;9519;51.890;8.970;2022-12-07T22:35:16;4.10;99.90
18781;DHT22;9519;51.890;8.970;2022-12-07T22:40:20;4.10;99.90
18781;DHT22;9519;51.890;8.970;2022-12-07T22:45:22;4.10;99.90
18781;DHT22;9519;51.890;8.970;2022-12-07T22:50:24;4.00;99.90
18781;DHT22;9519;51.890;8.970;2022-12-07T22:55:28;4.30;99.90
18781;DHT22;9519;51.890;8.970;2022-12-07T23:00:30;4.30;99.90
18781;DHT22;9519;51.890;8.970;2022-12-07T23:05:32;4.10;99.90
18781;DHT22;9519;51.890;8.970;2022-12-07T23:10:36;4.00;99.90
18781;DHT22;9519;51.890;8.970;2022-12-07T23:15:42;4.10;99.90
18781;DHT22;9519;51.890;8.970;2022-12-07T23:20:46;3.90;99.90
18781;DHT22;9519;51.890;8.970;2022-12-07T23:25:50;4.00;99.90
18781;DHT22;9519;51.890;8.970;2022-12-07T23:30:52;4.00;99.90
18781;DHT22;9519;51.890;8.970;2022-12-07T23:35:54;4.30;99.90
18781;DHT22;9519;51.890;8.970;2022-12-07T23:40:57;4.00;99.90
18781;DHT22;9519;51.890;8.970;2022-12-07T23:45:59;3.70;99.90
18781;DHT22;9519;51.890;8.970;2022-12-07T23:56:09;4.10;99.90
